createdAt,value
2022-08-31T00:04:46.076Z,0
2022-08-31T00:09:46.035Z,0
2022-08-31T00:14:46.020Z,0
2022-08-31T00:19:46.035Z,0
2022-08-31T00:24:46.016Z,0
2022-08-31T00:29:46.011Z,0
2022-08-31T00:34:46.035Z,0
2022-08-31T00:39:46.022Z,0
2022-08-31T00:44:46.023Z,0
2022-08-31T00:49:46.029Z,0
2022-08-31T00:54:46.005Z,0
2022-08-31T00:59:46.033Z,0
2022-08-31T01:04:46.015Z,0
2022-08-31T01:09:53.901Z,0
2022-08-31T01:14:46.017Z,0
2022-08-31T01:19:45.993Z,0
2022-08-31T01:24:45.993Z,0
2022-08-31T01:29:45.995Z,0
2022-08-31T01:34:45.999Z,0
2022-08-31T01:39:46.002Z,0
2022-08-31T01:44:46.003Z,0
2022-08-31T01:49:46.008Z,0
2022-08-31T01:54:45.995Z,0
2022-08-31T01:59:45.999Z,0
2022-08-31T02:04:46.000Z,0
2022-08-31T02:09:46.001Z,0
2022-08-31T02:14:45.981Z,0
2022-08-31T02:19:45.992Z,0
2022-08-31T02:24:45.961Z,0
2022-08-31T02:29:45.956Z,0
2022-08-31T02:34:45.972Z,0
2022-08-31T02:39:45.982Z,0
2022-08-31T02:44:45.973Z,0
2022-08-31T02:49:45.949Z,0
2022-08-31T02:54:45.972Z,0
2022-08-31T02:59:45.987Z,0
2022-08-31T03:04:45.968Z,0
2022-08-31T03:09:45.985Z,0
2022-08-31T03:14:45.935Z,0
2022-08-31T03:19:45.947Z,0
2022-08-31T03:24:45.942Z,0
2022-08-31T03:29:45.954Z,0
2022-08-31T03:34:45.942Z,0
2022-08-31T03:39:45.973Z,0
2022-08-31T03:44:45.933Z,0
2022-08-31T03:49:45.950Z,0
2022-08-31T03:54:45.966Z,0
2022-08-31T03:59:45.940Z,0
2022-08-31T04:04:45.945Z,0
2022-08-31T04:09:45.962Z,0
2022-08-31T04:14:45.953Z,0
2022-08-31T04:19:45.911Z,0
2022-08-31T04:24:45.919Z,0
2022-08-31T04:29:45.910Z,0
2022-08-31T04:34:45.933Z,0
2022-08-31T04:39:49.423Z,2
2022-08-31T04:44:45.923Z,5
2022-08-31T04:49:45.913Z,4
2022-08-31T04:54:45.888Z,6
2022-08-31T04:59:45.901Z,9
2022-08-31T05:04:45.895Z,8
2022-08-31T05:09:45.934Z,8
2022-08-31T05:14:45.932Z,13
2022-08-31T05:19:45.911Z,17
2022-08-31T05:24:45.924Z,20
2022-08-31T05:29:45.898Z,23
2022-08-31T05:34:45.880Z,31
2022-08-31T05:39:45.870Z,41
2022-08-31T05:44:45.859Z,51
2022-08-31T05:49:45.856Z,62
2022-08-31T05:54:45.909Z,69
2022-08-31T05:59:45.903Z,69
2022-08-31T06:04:45.942Z,76
2022-08-31T06:09:45.879Z,97
2022-08-31T06:14:47.986Z,99
2022-08-31T06:19:45.870Z,103
2022-08-31T06:24:45.872Z,120
2022-08-31T06:29:45.882Z,134
2022-08-31T06:34:45.854Z,152
2022-08-31T06:39:45.870Z,162
2022-08-31T06:44:45.867Z,171
2022-08-31T06:49:45.889Z,180
2022-08-31T06:54:45.874Z,181
2022-08-31T06:59:45.867Z,186
2022-08-31T07:04:45.881Z,178
2022-08-31T07:09:45.861Z,182
2022-08-31T07:14:53.030Z,181
2022-08-31T07:19:45.953Z,169
2022-08-31T07:24:45.867Z,158
2022-08-31T07:29:45.858Z,163
2022-08-31T07:34:45.883Z,178
2022-08-31T07:39:45.890Z,196
2022-08-31T07:44:53.159Z,212
2022-08-31T07:49:45.845Z,222
2022-08-31T07:54:45.831Z,248
2022-08-31T07:59:45.847Z,282
2022-08-31T08:04:45.861Z,344
2022-08-31T08:09:45.849Z,354
2022-08-31T08:14:45.857Z,335
2022-08-31T08:19:45.844Z,383
2022-08-31T08:24:45.851Z,372
2022-08-31T08:29:45.868Z,365
2022-08-31T08:34:45.828Z,345
2022-08-31T08:39:45.852Z,383
2022-08-31T08:44:45.823Z,374
2022-08-31T08:49:46.657Z,332
2022-08-31T08:54:45.853Z,309
2022-08-31T08:59:45.815Z,311
2022-08-31T09:04:45.819Z,358
2022-08-31T09:09:45.857Z,466
2022-08-31T09:14:45.859Z,680
2022-08-31T09:19:45.811Z,864
2022-08-31T09:24:45.813Z,832
2022-08-31T09:29:45.829Z,731
2022-08-31T09:34:45.843Z,763
2022-08-31T09:39:45.843Z,848
2022-08-31T09:44:45.832Z,885
2022-08-31T09:49:45.833Z,891
2022-08-31T09:54:47.252Z,897
2022-08-31T09:59:45.795Z,917
2022-08-31T10:04:45.882Z,917
2022-08-31T10:09:45.840Z,935
2022-08-31T10:14:45.819Z,914
2022-08-31T10:19:45.825Z,948
2022-08-31T10:24:45.815Z,983
2022-08-31T10:29:45.815Z,980
2022-08-31T10:34:45.800Z,968
2022-08-31T10:39:45.833Z,978
2022-08-31T10:44:47.651Z,960
2022-08-31T10:49:45.820Z,886
2022-08-31T10:54:45.808Z,916
2022-08-31T10:59:46.114Z,917
2022-08-31T11:04:45.839Z,942
2022-08-31T11:09:45.819Z,923
2022-08-31T11:14:45.802Z,925
2022-08-31T11:19:45.804Z,921
2022-08-31T11:24:45.779Z,862
2022-08-31T11:29:45.763Z,822
2022-08-31T11:34:45.798Z,826
2022-08-31T11:39:45.819Z,760
2022-08-31T11:44:45.786Z,754
2022-08-31T11:49:45.832Z,813
2022-08-31T11:54:45.826Z,877
2022-08-31T11:59:45.823Z,898
2022-08-31T12:04:45.827Z,885
2022-08-31T12:09:45.810Z,887
2022-08-31T12:14:45.810Z,891
2022-08-31T12:19:45.822Z,902
2022-08-31T12:24:47.447Z,882
2022-08-31T12:29:45.821Z,829
2022-08-31T12:34:45.808Z,730
2022-08-31T12:39:45.775Z,688
2022-08-31T12:44:45.789Z,680
2022-08-31T12:49:45.814Z,671
2022-08-31T12:54:45.788Z,716
2022-08-31T12:59:59.732Z,736
2022-08-31T13:04:45.813Z,706
2022-08-31T13:09:45.814Z,673
2022-08-31T13:14:45.778Z,658
2022-08-31T13:19:45.796Z,688
2022-08-31T13:24:46.064Z,720
2022-08-31T13:29:45.817Z,560
2022-08-31T13:34:45.798Z,500
2022-08-31T13:39:45.814Z,649
2022-08-31T13:44:45.772Z,661
2022-08-31T13:49:45.756Z,635
2022-08-31T13:54:45.789Z,555
2022-08-31T13:59:45.807Z,543
2022-08-31T14:04:45.800Z,540
2022-08-31T14:09:45.773Z,585
2022-08-31T14:14:45.783Z,609
2022-08-31T14:19:45.801Z,604
2022-08-31T14:24:45.795Z,590
2022-08-31T14:29:45.764Z,570
2022-08-31T14:34:45.753Z,542
2022-08-31T14:39:45.813Z,522
2022-08-31T14:44:45.789Z,503
2022-08-31T14:49:45.774Z,489
2022-08-31T14:54:45.776Z,457
2022-08-31T14:59:45.780Z,459
2022-08-31T15:04:46.185Z,412
2022-08-31T15:09:45.777Z,382
2022-08-31T15:14:45.783Z,347
2022-08-31T15:19:45.774Z,289
2022-08-31T15:24:45.761Z,214
2022-08-31T15:29:45.760Z,190
2022-08-31T15:34:45.756Z,178
2022-08-31T15:39:45.782Z,135
2022-08-31T15:44:45.781Z,65
2022-08-31T15:49:45.758Z,44
2022-08-31T15:54:45.781Z,61
2022-08-31T15:59:45.788Z,86
2022-08-31T16:04:45.795Z,100
2022-08-31T16:09:45.756Z,73
2022-08-31T16:14:45.789Z,120
2022-08-31T16:19:45.764Z,64
2022-08-31T16:24:45.791Z,66
2022-08-31T16:29:45.773Z,48
2022-08-31T16:34:45.755Z,70
2022-08-31T16:39:45.779Z,55
2022-08-31T16:44:46.036Z,49
2022-08-31T16:49:46.013Z,45
2022-08-31T16:54:46.026Z,33
2022-08-31T16:59:46.067Z,27
2022-08-31T17:04:52.342Z,21
2022-08-31T17:09:46.010Z,19
2022-08-31T17:14:46.019Z,17
2022-08-31T17:19:45.992Z,15
2022-08-31T17:24:46.028Z,13
2022-08-31T17:29:45.986Z,13
2022-08-31T17:34:46.036Z,13
2022-08-31T17:39:45.995Z,13
2022-08-31T17:44:45.965Z,16
2022-08-31T17:49:46.867Z,13
2022-08-31T17:54:45.997Z,10
2022-08-31T17:59:45.977Z,4
2022-08-31T18:04:46.076Z,4
2022-08-31T18:09:45.996Z,1
2022-08-31T18:14:45.987Z,0
2022-08-31T18:19:45.996Z,0
2022-08-31T18:24:46.011Z,0
2022-08-31T18:29:46.006Z,0
2022-08-31T18:34:46.000Z,0
2022-08-31T18:39:51.764Z,0
2022-08-31T18:44:45.967Z,0
2022-08-31T18:49:45.983Z,0
2022-08-31T18:54:45.973Z,0
2022-08-31T18:59:45.996Z,0
2022-08-31T19:04:45.945Z,0
2022-08-31T19:09:45.973Z,0
2022-08-31T19:14:45.946Z,0
2022-08-31T19:19:45.947Z,0
2022-08-31T19:24:45.962Z,0
2022-08-31T19:29:45.954Z,0
2022-08-31T19:34:46.517Z,0
2022-08-31T19:39:45.962Z,0
2022-08-31T19:49:50.007Z,0
2022-08-31T19:54:45.960Z,0
2022-08-31T19:59:45.959Z,0
2022-08-31T20:04:45.938Z,0
2022-08-31T20:09:45.949Z,0
2022-08-31T20:14:45.969Z,0
2022-08-31T20:19:45.957Z,0
2022-08-31T20:24:45.974Z,0
2022-08-31T20:29:45.969Z,0
2022-08-31T20:34:45.965Z,0
2022-08-31T20:39:45.972Z,0
2022-08-31T20:44:45.961Z,0
2022-08-31T20:49:45.960Z,0
2022-08-31T20:54:45.955Z,0
2022-08-31T20:59:45.925Z,0
2022-08-31T21:04:45.918Z,0
2022-08-31T21:09:45.955Z,0
2022-08-31T21:14:45.934Z,0
2022-08-31T21:19:45.907Z,0
2022-08-31T21:24:45.922Z,0
2022-08-31T21:29:45.908Z,0
2022-08-31T21:34:45.944Z,0
2022-08-31T21:39:45.912Z,0
2022-08-31T21:44:45.926Z,0
2022-08-31T21:49:45.901Z,0
2022-08-31T21:54:45.931Z,0
2022-08-31T21:59:45.929Z,0
2022-08-31T22:04:45.928Z,0
2022-08-31T22:09:45.927Z,0
2022-08-31T22:14:45.888Z,0
2022-08-31T22:19:45.912Z,0
2022-08-31T22:24:45.929Z,0
2022-08-31T22:29:45.916Z,0
2022-08-31T22:34:45.925Z,0
2022-08-31T22:39:45.906Z,0
2022-08-31T22:44:45.871Z,0
2022-08-31T22:49:45.873Z,0
2022-08-31T22:54:45.894Z,0
2022-08-31T22:59:45.878Z,0
2022-08-31T23:04:45.936Z,0
2022-08-31T23:09:45.877Z,0
2022-08-31T23:14:45.897Z,0
2022-08-31T23:19:45.864Z,0
2022-08-31T23:24:45.867Z,0
2022-08-31T23:29:45.893Z,0
2022-08-31T23:34:45.866Z,0
2022-08-31T23:39:45.847Z,0
2022-08-31T23:44:45.891Z,0
2022-08-31T23:49:45.881Z,0
2022-08-31T23:54:45.875Z,0
2022-08-31T23:59:47.950Z,0
